Latest Coastal Weather Observations for Wynyard

IDV60701

Issued at 3:45 am EST Thursday 24 April 2014 (issued every 10 minutes, with the page automatically refreshed every 10 minutes)

About coastal observations | Map of coastal stations | Coastal observations for VIC | Marine services | Other Formats
Station Details ID: 091107 Name: WYNYARD AIRPORT Lat: -41.00 Lon: 145.73 Height: 12.0 m
Data from the previous 72 hours. | See also: Recent months at Wynyard
Date/Time
EST
Temp

°C
Wind Pressure Rain
since 9am
mm
Weather Cloud Vis
km
Sea
Height
m
Swell
Dir
 
Speed
knots
Gust
knots
hPa Trend Height
m
Period
s
Dir
24/03:42am 12.9 W 29 39 1002.7 - 1.6 - Partly cloudy 4 - - - -
24/03:30am 16.1 NW 22 33 1001.9 - 0.0 - Partly cloudy 10 - - - -
24/03:00am 16.2 NW 22 32 1002.6 - 0.0 - Cloudy 10 - - - -
24/02:31am 16.1 NW 19 29 1003.4 - 0.0 - Partly cloudy 10 - - - -
24/02:30am 16.1 NW 18 25 1003.5 - 0.0 - Partly cloudy 10 - - - -
24/02:00am 16.2 NNW 19 30 1004.4 - 0.0 - Partly cloudy 10 - - - -
24/01:36am 16.0 NNW 16 27 1005.0 - 0.0 - Partly cloudy 10 - - - -
24/01:30am 15.8 NNW 16 21 1005.2 - 0.0 - Partly cloudy 10 - - - -
24/01:11am 15.9 NNW 15 25 1005.6 - 0.0 - Partly cloudy 10 - - - -
24/01:00am 15.7 NNW 17 24 1005.8 - 0.0 - Partly cloudy 10 - - - -
24/12:38am 15.9 NW 15 25 1006.4 - 0.0 - Partly cloudy 10 - - - -
24/12:30am 15.6 NW 12 20 1006.5 - 0.0 - Partly cloudy 10 - - - -
24/12:00am 15.4 NW 15 19 1007.1 - 0.0 - Cloudy 10 - - - -
 
Date/Time
EST
Temp

°C
Wind Pressure Rain
since 9am
mm
Weather Cloud Vis
km
Sea
Height
m
Swell
Dir
 
Speed
knots
Gust
knots
hPa Trend Height
m
Period
s
Dir
23/11:30pm 15.2 NW 13 18 1007.7 - 0.0 - Partly cloudy 10 - - - -
23/11:00pm 15.2 NW 14 19 1008.2 - 0.0 - Partly cloudy 10 - - - -
23/10:30pm 15.2 NW 13 19 1008.7 - 0.0 - Partly cloudy 10 - - - -
23/10:00pm 14.7 NW 11 17 1009.1 - 0.0 - Partly cloudy 10 - - - -
23/09:30pm 14.8 NW 13 19 1009.3 - 0.0 - Partly cloudy 10 - - - -
23/09:00pm 14.5 NW 12 16 1009.6 - 0.0 - Partly cloudy 10 - - - -
23/08:30pm 11.8 SW 3 5 1009.7 - 0.0 - Partly cloudy 10 - - - -
23/08:00pm 11.3 S 3 4 1010.1 - 0.0 - Partly cloudy 10 - - - -
23/07:30pm 11.1 S 3 4 1010.3 - 0.0 - Partly cloudy 10 - - - -
23/07:00pm 10.8 SSE 3 4 1010.3 - 0.0 - Partly cloudy 10 - - - -
23/06:30pm 10.8 CALM 0 0 1010.5 - 0.0 - Partly cloudy 10 - - - -
23/06:00pm 12.3 WNW 6 7 1010.5 - 0.0 - - 10 - - - -
23/05:30pm 13.9 WNW 9 11 1010.5 - 0.0 - - 10 - - - -
23/05:00pm 14.8 WNW 9 12 1010.7 - 0.0 - Partly cloudy 10 - - - -
23/04:30pm 15.3 WNW 8 11 1010.9 - 0.0 - Partly cloudy 10 - - - -
23/04:00pm 15.0 NNW 10 16 1011.0 - 0.0 - Partly cloudy 10 - - - -
23/03:30pm 15.9 WNW 8 11 1011.1 - 0.0 - Partly cloudy 10 - - - -
23/03:00pm 15.0 NW 12 17 1011.3 - 0.0 - Cloudy 10 - - - -
23/02:30pm 16.3 NW 10 15 1011.5 - 0.0 - Partly cloudy 10 - - - -
23/02:00pm 14.8 NW 10 18 1011.9 - 0.0 - Partly cloudy 10 - - - -
23/01:30pm 13.9 NNW 13 18 1012.5 - 0.0 - Partly cloudy 10 - - - -
23/01:00pm 15.9 NW 11 17 1012.7 - 0.0 - Partly cloudy 10 - - - -
23/12:30pm 16.3 NNW 10 15 1013.1 - 0.0 - Partly cloudy 10 - - - -
23/12:00pm 15.0 NNW 8 13 1013.8 - 0.0 - Cloudy 10 - - - -
23/11:30am 14.9 NNE 6 8 1014.1 - 0.0 - Partly cloudy 10 - - - -
23/11:00am 15.0 NNE 5 8 1014.3 - 0.0 - Partly cloudy 10 - - - -
23/10:30am 14.4 N 4 6 1014.5 - 0.0 - - 10 - - - -
23/10:00am 13.3 WSW 2 4 1014.9 - 0.0 - Cloudy 10 - - - -
23/09:30am 11.7 W 4 5 1015.3 - 0.0 - Cloudy 10 - - - -
23/09:00am 10.5 WNW 4 5 1015.6 - 0.0 - Mostly cloudy 10 - - - -
23/08:30am 9.1 W 5 6 1015.6 - 0.0 - Cloudy 10 - - - -
23/08:00am 8.4 W 4 5 1015.6 - 0.0 - Cloudy 10 - - - -
23/07:30am 7.7 W 5 7 1015.4 - 0.0 - Partly cloudy 10 - - - -
23/07:00am 7.9 WNW 5 6 1015.1 - 0.0 - Partly cloudy 10 - - - -
23/06:30am 6.9 W 4 5 1014.8 - 0.0 - Partly cloudy 10 - - - -
23/06:00am 8.2 WNW 5 7 1015.0 - 0.0 - Cloudy 10 - - - -
23/05:30am 8.4 WNW 5 7 1015.0 - 0.0 - Partly cloudy 10 - - - -
23/05:00am 7.9 W 5 7 1015.0 - 0.0 - Partly cloudy 10 - - - -
23/04:30am 7.9 WNW 4 5 1015.0 - 0.0 - Partly cloudy 10 - - - -
23/04:00am 7.5 W 5 5 1015.0 - 0.0 - Partly cloudy 10 - - - -
23/03:30am 7.6 W 4 5 1015.0 - 0.0 - Partly cloudy 10 - - - -
23/03:00am 8.2 W 2 5 1015.1 - 0.0 - Cloudy 10 - - - -
23/02:30am 8.3 W 6 7 1015.4 - 0.0 - Partly cloudy 10 - - - -
23/02:00am 7.7 W 5 6 1015.5 - 0.0 - Partly cloudy 10 - - - -
23/01:30am 7.5 WSW 5 6 1015.7 - 0.0 - Partly cloudy 10 - - - -
23/01:00am 7.0 SSW 4 5 1015.7 - 0.0 - Partly cloudy 10 - - - -
23/12:30am 6.9 W 5 5 1015.9 - 0.0 - Partly cloudy 10 - - - -
23/12:00am 5.2 SW 3 4 1015.6 - 0.0 - Cloudy 10 - - - -
 
Date/Time
EST
Temp

°C
Wind Pressure Rain
since 9am
mm
Weather Cloud Vis
km
Sea
Height
m
Swell
Dir
 
Speed
knots
Gust
knots
hPa Trend Height
m
Period
s
Dir
22/11:30pm 6.9 WNW 3 5 1015.8 - 0.0 - Partly cloudy 10 - - - -
22/11:00pm 5.9 W 4 6 1015.7 - 0.0 - Partly cloudy 10 - - - -
22/10:30pm 5.5 SW 5 6 1015.7 - 0.0 - - 10 - - - -
22/10:00pm 5.7 WSW 4 5 1015.6 - 0.0 - - 10 - - - -
22/09:30pm 6.4 SW 3 4 1015.3 - 0.0 - - 10 - - - -
22/09:00pm 6.4 WSW 5 6 1015.0 - 0.0 - - 10 - - - -
22/08:30pm 7.4 W 4 5 1014.7 - 0.0 - Partly cloudy 10 - - - -
22/08:00pm 8.2 WSW 3 3 1014.6 - 0.0 - Partly cloudy 10 - - - -
22/07:30pm 9.6 W 4 5 1014.2 - 0.0 - - 10 - - - -
22/07:00pm 10.2 WNW 5 6 1013.9 - 0.0 - - 10 - - - -
22/06:30pm 11.5 W 5 6 1013.6 - 0.0 - - 10 - - - -
22/06:00pm 12.1 W 9 12 1013.3 - 0.0 - - 10 - - - -
22/05:30pm 13.1 W 9 11 1012.7 - 0.0 - - 10 - - - -
22/05:00pm 14.7 W 11 14 1012.4 - 0.0 - Partly cloudy 10 - - - -
22/04:30pm 15.6 W 13 17 1012.1 - 0.0 - Partly cloudy 10 - - - -
22/04:00pm 16.0 W 15 18 1011.8 - 0.0 - - 10 - - - -
22/03:30pm 16.2 W 18 25 1011.7 - 0.0 - - 10 - - - -
22/03:00pm 16.9 WSW 14 19 1011.5 - 0.0 - Mostly clear 10 - - - -
22/02:30pm 17.0 W 18 23 1011.2 - 0.0 - Partly cloudy 10 - - - -
22/02:00pm 16.7 W 20 28 1010.9 - 0.0 - Partly cloudy 10 - - - -
22/01:30pm 18.2 W 14 21 1010.8 - 0.0 - Partly cloudy 10 - - - -
22/01:00pm 16.8 WSW 20 27 1010.6 - 0.0 - Partly cloudy 10 - - - -
22/12:54pm 17.6 WSW 20 27 1010.5 - 0.0 - Partly cloudy 10 - - - -
22/12:30pm 17.5 W 17 23 1010.6 - 0.0 - - 10 - - - -
22/12:00pm 17.4 W 18 24 1010.6 - 0.0 - Mostly clear 10 - - - -
22/11:30am 17.4 WSW 13 18 1010.6 - 0.0 - Partly cloudy 10 - - - -
22/11:00am 17.6 W 16 22 1010.7 - 0.0 - Partly cloudy 10 - - - -
22/10:30am 16.6 WSW 14 19 1010.3 - 0.0 - - 10 - - - -
22/10:00am 16.0 W 13 21 1010.2 - 0.0 - - 10 - - - -
22/09:30am 15.7 W 14 18 1009.9 - 0.0 - Partly cloudy 10 - - - -
22/09:00am 14.8 W 13 17 1009.7 - 16.4 - Mostly clear 10 - - - -
22/08:30am 14.6 W 10 13 1009.6 - 16.4 - Partly cloudy 10 - - - -
22/08:00am 14.4 WNW 9 11 1009.4 - 16.4 - Partly cloudy 10 - - - -
22/07:30am 14.1 WNW 7 9 1008.9 - 16.4 - Partly cloudy 10 - - - -
22/07:00am 14.2 W 7 9 1008.4 - 16.4 - Partly cloudy 10 - - - -
22/06:30am 14.8 WNW 10 12 1008.2 - 16.4 - Partly cloudy 9 - - - -
22/06:00am 15.0 WNW 8 10 1007.4 - 16.4 - - 9 - - - -
22/05:34am 15.3 WNW 9 12 1007.2 - 16.4 - Partly cloudy 9 - - - -
22/05:30am 15.3 WNW 9 12 1007.2 - 16.4 - Partly cloudy 9 - - - -
22/05:25am 15.5 WNW 10 13 1007.3 - 16.4 - Partly cloudy 9 - - - -
22/05:02am 15.5 W 9 11 1007.1 - 14.6 - Partly cloudy 5 - - - -
22/05:01am 15.5 W 8 11 1007.2 - 13.8 - Partly cloudy 6 - - - -
22/05:00am 15.5 W 8 11 1007.1 - 13.8 - Partly cloudy 6 - - - -
22/04:56am 15.6 W 8 12 1007.0 - 13.4 - Partly cloudy 7 - - - -
22/04:43am 15.5 WNW 9 13 1007.1 - 13.4 - Partly cloudy 9 - - - -
22/04:30am 15.7 WNW 12 17 1007.2 - 13.4 - Partly cloudy 10 - - - -
22/04:19am 15.5 NW 13 17 1007.3 - 13.4 - Partly cloudy 10 - - - -
22/04:00am 15.4 NW 14 21 1007.4 - 13.0 - Partly cloudy 5 - - - -
22/03:45am 15.7 WNW 17 25 1007.3 - 12.2 - Partly cloudy 5 - - - -
22/03:40am 16.3 NW 18 28 1007.1 - 11.6 - Cloudy 8 - - - -
22/03:30am 17.3 NW 18 26 1007.0 - 11.4 - Cloudy 10 - - - -
22/03:22am 17.5 NW 15 25 1006.9 - 11.4 - Cloudy 10 - - - -
22/03:00am 17.8 NW 15 23 1007.0 - 11.4 - Cloudy 10 - - - -
22/02:54am 17.7 WNW 16 26 1007.1 - 11.4 - Partly cloudy 10 - - - -
22/02:30am 17.6 NW 16 24 1007.4 - 11.4 - Partly cloudy 10 - - - -
22/02:00am 17.4 NW 14 22 1007.7 - 11.4 - Cloudy 10 - - - -
22/01:30am 17.3 NW 15 22 1007.9 - 11.4 - Cloudy 10 - - - -
22/01:00am 17.4 NW 14 22 1008.0 - 11.4 - Partly cloudy 10 - - - -
22/12:30am 17.1 NW 15 24 1008.2 - 11.4 - Partly cloudy 10 - - - -
22/12:00am 17.0 NW 15 20 1008.5 - 11.2 - Mostly cloudy 10 - - - -
 
Date/Time
EST
Temp

°C
Wind Pressure Rain
since 9am
mm
Weather Cloud Vis
km
Sea
Height
m
Swell
Dir
 
Speed
knots
Gust
knots
hPa Trend Height
m
Period
s
Dir
21/11:30pm 16.8 NW 13 21 1008.8 - 11.2 - Partly cloudy 10 - - - -
21/11:00pm 14.8 W 6 8 1009.3 - 11.2 - Partly cloudy 10 - - - -
21/10:30pm 14.4 SE 4 5 1009.5 - 11.2 - Partly cloudy 10 - - - -
21/10:00pm 14.9 ENE 4 6 1010.4 - 11.2 - Partly cloudy 9 - - - -
21/09:30pm 15.1 NNE 6 10 1010.7 - 11.0 - Partly cloudy 6 - - - -
21/09:00pm 15.0 NE 8 12 1011.0 - 10.2 - Cloudy 6 - - - -
21/08:30pm 12.0 E 3 5 1011.5 - 9.2 - Partly cloudy 9 - - - -
21/08:00pm 10.1 S 4 4 1011.6 - 8.8 - Cloudy 10 - - - -
21/07:30pm 10.0 CALM 0 0 1011.9 - 8.8 - Partly cloudy 10 - - - -
21/07:25pm 10.0 CALM 0 0 1011.9 - 8.8 - Partly cloudy 10 - - - -
21/07:00pm 10.0 CALM 0 0 1012.0 - 8.8 - Partly cloudy 10 - - - -
21/06:30pm 9.9 S 5 7 1012.2 - 8.8 - Partly cloudy 10 - - - -
21/06:00pm 9.7 SW 3 5 1012.2 - 8.8 - Mostly cloudy 10 - - - -
21/05:30pm 9.6 WSW 4 6 1012.3 - 8.2 - Partly cloudy 8 - - - -
21/05:03pm 9.6 CALM 0 4 1012.2 - 7.8 - Partly cloudy 7 - - - -
21/05:00pm 9.5 CALM 0 0 1012.3 - 7.8 - Partly cloudy 7 - - - -
21/04:38pm 9.6 CALM 0 0 1012.3 - 7.0 - Partly cloudy 5 - - - -
21/04:30pm 9.5 CALM 0 0 1012.4 - 6.4 - Partly cloudy 10 - - - -
21/04:00pm 9.2 SSE 5 7 1012.5 - 6.4 - Cloudy 10 - - - -
21/03:33pm 9.1 SSE 3 4 1013.4 - 6.4 - Partly cloudy 6 - - - -
21/03:30pm 9.1 SSE 3 5 1013.5 - 6.4 - Partly cloudy 7 - - - -
21/03:01pm 9.0 SSE 5 7 1013.8 - 5.8 - Partly cloudy 10 - - - -
21/03:00pm 8.9 SSE 5 7 1013.8 - 5.8 - Cloudy 10 - - - -
21/02:30pm 8.5 SW 5 7 1014.3 - 5.8 - Partly cloudy 10 - - - -
21/02:03pm 8.5 S 5 7 1014.8 - 5.6 - Cloudy 7 - - - -
21/02:00pm 8.6 SSE 5 7 1014.7 - 5.6 - Cloudy 7 - - - -
21/01:56pm 8.5 SSE 6 7 1014.7 - 5.6 - Cloudy 7 - - - -
21/01:34pm 8.5 SSE 6 7 1015.1 - 4.6 - Cloudy 5 - - - -
21/01:30pm 8.5 S 6 8 1015.1 - 4.4 - Cloudy 7 - - - -
21/01:00pm 8.6 SSE 5 7 1015.4 - 3.0 - Cloudy 10 - - - -
21/12:35pm 8.5 SE 7 10 1015.6 - 2.6 - Partly cloudy 9 - - - -
21/12:30pm 8.4 SE 8 11 1015.8 - 2.6 - Partly cloudy 8 - - - -
21/12:00pm 8.6 SSE 10 12 1016.5 - 1.4 - Mostly cloudy 4 - - - -
21/11:59am 8.8 SSE 9 12 1016.6 - 1.0 - Cloudy 5 - - - -
21/11:30am 9.6 SSE 10 13 1016.9 - 0.2 - Cloudy 10 - - - -
21/11:00am 9.5 S 8 10 1017.5 - 0.2 - Cloudy 10 - - - -
21/10:40am 9.1 S 6 9 1017.5 - 0.0 - Cloudy 10 - - - -
21/10:30am 9.0 SSE 7 10 1017.6 - 0.0 - Cloudy 5 - - - -
21/10:24am 9.1 SSE 7 9 1017.7 - 0.0 - Cloudy 5 - - - -
21/10:00am 9.3 SE 8 11 1017.4 - 0.0 - Cloudy 10 - - - -
21/09:30am 8.9 SSE 7 9 1018.1 - 0.0 - Cloudy 10 - - - -
21/09:00am 8.6 SE 5 7 1018.0 - 1.4 - Cloudy 10 - - - -
21/08:30am 8.1 SSE 5 6 1018.1 - 1.4 - Cloudy 10 - - - -
21/08:00am 6.7 WSW 3 4 1018.1 - 1.4 - Cloudy 10 - - - -
21/07:30am 6.1 WNW 5 6 1017.9 - 1.2 - Partly cloudy 10 - - - -
21/07:00am 5.6 W 5 6 1017.9 - 1.2 - Partly cloudy 10 - - - -
21/06:30am 5.4 WNW 6 7 1017.9 - 1.2 - Cloudy 10 - - - -
21/06:00am 4.5 W 7 8 1017.6 - 1.2 - Cloudy 10 - - - -
21/05:30am 4.5 W 5 7 1017.2 - 1.2 - Partly cloudy 10 - - - -
21/05:00am 3.8 W 7 9 1017.1 - 1.2 - Partly cloudy 10 - - - -
21/04:30am 3.1 W 6 8 1016.8 - 1.2 - Partly cloudy 10 - - - -
21/04:00am 3.6 WNW 5 6 1016.8 - 1.2 - - 10 - - - -

Other Formats:

Comma delimited format used in spreadsheet applications
http://www.bom.gov.au/fwo/IDV60701/IDV60701.95957.axf

JavaScript Object Notation format (JSON) in row-major order
http://www.bom.gov.au/fwo/IDV60701/IDV60701.95957.json